Boomer, TN

5:13 AM EDT on March 30, 2017 (GMT -0400)
CatpenFalls | | Change Station
Active Advisory: Wind Advisory

Elev 3276 ft 35.83 °N, 82.91 °W | Updated 2 seconds ago

Clear
Clear
57.4 °F
Feels Like 57.4 °F
N
0.0
Wind Variable Wind from NE
Gusts 0.0 mph

Today
High -- | Low -- °F
--% Chance of Precip.
Yesterday
High -- | Low -- °F
Precip. -- in
Pressure 30.00 in
Visibility 10.0 miles
Clouds Clear
Dew Point 50 °F
Humidity 75%
Rainfall 0.00 in
Snow Depth Not available.
7:20 AM 7:52 PM
Waxing Crescent, 7% visible
METAR KAVL 300854Z AUTO 15003KT 10SM CLR 12/09 A3006 RMK AO2 SLP159 T01220089 56006
Pressure 30.00 in
Visibility 10.0 miles
Clouds Clear
Dew Point 50 °F
Humidity 75%
Rainfall 0.00 in
Snow Depth Not available.
7:20 AM 7:52 PM
Waxing Crescent, 7% visible
METAR KAVL 300854Z AUTO 15003KT 10SM CLR 12/09 A3006 RMK AO2 SLP159 T01220089 56006

Get Your Daily Forecast Email!

Thanks for signing up!

Be on the lookout for a verification email in your inbox.

You'll start receiving severe weather alerts in your inbox..

×

10-Day Weather Forecast

Almanac

Astronomy

Mar. 30, 2017 Rise Set
Actual Time
Civil Twilight
Nautical Twilight
Astronomical Twilight
Moon
Length of Visible Light
Length of Day
Tomorrow will be .
, % of the Moon is Illuminated

Today's Extremes

State Highs State Lows

Community

WunderPhotos

Upload Photos

1,962,540 photos uploaded!

WunderBlog® & News

Nearby

Air Quality

  Air Quality AQ Index Pollutant
Not available.

Snow Depth

Station Depth Elevation

Earthquake Activity

City Distance Mag. Time & Date
Minimum magnitude displayed is 2.5.

Earthquake Activity

City Distance Mag. Time & Date
Minimum magnitude displayed is 2.5.

Coastal Water Temperatures

Place Temperature

Stations

Nearby Weather Stations

Station Location Temp. Windchill Dew Point Humidity Wind Precip. Elev Updated Type
                   

Watches & Warnings

Wind Advisory
Issued: 3:57 AM EDT Mar. 30, 2017 – National Weather Service

... Wind Advisory in effect from 5 PM this afternoon to 8 am EDT
Friday...

The National Weather Service in Morristown has issued a Wind
Advisory, which is in effect from 5 PM this afternoon to 8 am EDT
Friday. The high wind watch is no longer in effect.

* Event... southerly winds increasing to 25 to 35 mph with gusts up
to 55 mph.

* Timing... increasing winds this afternoon with strong gusty
southerly winds late today through early Friday morning.


* Impacts... the windy conditions may down small trees, branches
and power lines. Scattered power outages are possible. Driving
high profile vehicles in these conditions will be difficult.

Precautionary/preparedness actions...

A Wind Advisory means that winds of 26 to 39 mph and/or gusts of
40 to 57 mph are expected or occurring. Winds this strong can
make driving difficult... especially for high profile vehicles.
Use extra caution.